Flight Track Log - Related Links

Times and Time Zones

All times are in EDT time to prevent confusion due to time zone crossing. See the EJM24 flight status page for this flight to view local times or setup timezone preferences in your user account.

Time Position Orientation Groundspeed Altitude Reporting Facility
EDT Latitude Longitude Course Direction KTS MPH feet Rate Location/Type
Tue 04:00:45 PM 32.8403 -96.8356 130° Southeast 161 185 1,500  Level FAA TRACON SMA TRACON (SMA)
Tue 04:01:23 PM 32.8192 -96.8061 132° Southeast 196 226 3,100 1,823 Climbing FAA TRACON SMA TRACON (SMA)
Tue 04:02:04 PM 32.7892 -96.7661 114° Southeast 242 278 3,900 593 Climbing FAA TRACON SMA TRACON (SMA)
Tue 04:02:44 PM 32.7692 -96.7136 63° Northeast 270 311 3,900 72 Level FAA TRACON SMA TRACON (SMA)
Tue 04:03:27 PM 32.7933 -96.6569 61° Northeast 279 321 4,000 1,125 Climbing FAA TRACON SMA TRACON (SMA)
Tue 04:04:04 PM 32.8164 -96.6072 60° Northeast 280 322 5,400 2,211 Climbing FAA TRACON SMA TRACON (SMA)
Tue 04:04:43 PM 32.8442 -96.5497 61° Northeast 290 334 6,800 1,139 Climbing FAA TRACON SMA TRACON (SMA)
Tue 04:05:23 PM 32.8678 -96.4983 61° Northeast 291 335 6,900 76 Climbing FAA TRACON SMA TRACON (SMA)
Tue 04:06:02 PM 32.8953 -96.4400 61° Northeast 291 335 6,900  Level FAA TRACON SMA TRACON (SMA)
Tue 04:06:43 PM 32.9225 -96.3817 58° Northeast 292 336 6,900  Level FAA TRACON SMA TRACON (SMA)
Tue 04:07:24 PM 32.9494 -96.3311 58° Northeast 292 336 6,900 -370 Level FAA TRACON SMA TRACON (SMA)
Tue 04:08:04 PM 32.9778 -96.2769 56° Northeast 278 320 6,400 -1,407 Descending FAA TRACON SMA TRACON (SMA)
Tue 04:08:45 PM 33.0083 -96.2231 47° Northeast 280 322 5,000 -1,769 Descending FAA TRACON SMA TRACON (SMA)
Tue 04:09:22 PM 33.0394 -96.1839 14° North 279 321 4,100 -1,462 Descending FAA TRACON SMA TRACON (SMA)
Tue 04:10:03 PM 33.0903 -96.1689 16° North 277 319 3,100 -878 Descending FAA TRACON SMA TRACON (SMA)
Tue 04:10:44 PM 33.1375 -96.1528 12° North 263 303 2,900 -148 Descending FAA TRACON SMA TRACON (SMA)
Tue 04:11:24 PM 33.1867 -96.1406 33° Northeast 275 316 2,900 75 Level FAA TRACON SMA TRACON (SMA)
Tue 04:12:04 PM 33.2256 -96.1103 99° East 257 296 3,000  Climbing FAA TRACON SMA TRACON (SMA)
Tue 04:12:44 PM 33.2197 -96.0639 180° South 230 265 2,900 -450 Descending FAA TRACON SMA TRACON (SMA)
Tue 04:13:24 PM 33.1908 -96.0642 180° South 177 204 2,400 -675 Descending FAA TRACON SMA TRACON (SMA)
Tue 04:14:04 PM 33.1658 -96.0642 182° South 162 186 2,000 -608 Descending FAA TRACON SMA TRACON (SMA)
Tue 04:16:02 PM 33.0767 -96.0672 181° South 144 166 800 337 Descending Fort Worth Center
Tue 04:17:02 PM 33.0350 -96.0678 181° South 144 166 3,000 1,100 Climbing Fort Worth Center
Tue 04:18:02 PM 32.9933 -96.0686 181° South 144 166 3,000  Level Fort Worth Center
Tue 04:19:02 PM 32.9514 -96.0692 181° South 144 166 3,000  Level Fort Worth Center
Tue 04:20:02 PM 32.9181 -96.0697 360° North 144 166 3,000  Level Fort Worth Center
Tue 04:21:02 PM 32.9181 -96.0697 360° North 144 166 3,000  Level Fort Worth Center
Tue 04:22:02 PM 32.9181 -96.0697 North 144 166 3,000  Level Fort Worth Center
Tue 04:23:02 PM 33.0433 -96.0653 352° North 144 166 3,000 -800 Level Fort Worth Center
Tue 04:24:02 PM 33.0558 -96.0675 241° Southwest 284 327 1,400  Descending Fort Worth Center
Tue 04:25:02 PM 33.0333 -96.1150 241° Southwest 198 228 3,000 1,600 Climbing Fort Worth Center

Login

Don't have an account? Register now (free) for customized features, flight alerts, and more!